sensor_id;sensor_type;location;lat;lon;timestamp;pressure;altitude;pressure_sealevel;temperature;humidity
37904;BME280;23738;50.422;18.758;2024-03-22T00:01:05;98768.89;;;10.57;72.99
37904;BME280;23738;50.422;18.758;2024-03-22T00:03:34;98772.69;;;10.55;72.68
37904;BME280;23738;50.422;18.758;2024-03-22T00:06:04;98774.42;;;10.55;72.74
37904;BME280;23738;50.422;18.758;2024-03-22T00:08:33;98774.17;;;10.54;72.97
37904;BME280;23738;50.422;18.758;2024-03-22T00:11:03;98768.59;;;10.55;72.59
37904;BME280;23738;50.422;18.758;2024-03-22T00:13:32;98767.94;;;10.56;72.84
37904;BME280;23738;50.422;18.758;2024-03-22T00:16:01;98767.86;;;10.57;73.00
37904;BME280;23738;50.422;18.758;2024-03-22T00:18:30;98767.81;;;10.56;73.50
37904;BME280;23738;50.422;18.758;2024-03-22T00:21:00;98767.44;;;10.53;73.14
37904;BME280;23738;50.422;18.758;2024-03-22T00:23:30;98770.27;;;10.50;73.29
37904;BME280;23738;50.422;18.758;2024-03-22T00:25:59;98768.83;;;10.49;73.22
37904;BME280;23738;50.422;18.758;2024-03-22T00:28:29;98767.36;;;10.48;73.41
37904;BME280;23738;50.422;18.758;2024-03-22T00:30:58;98763.45;;;10.49;73.89
37904;BME280;23738;50.422;18.758;2024-03-22T00:33:27;98762.71;;;10.47;73.86
37904;BME280;23738;50.422;18.758;2024-03-22T00:35:56;98758.45;;;10.45;74.19
37904;BME280;23738;50.422;18.758;2024-03-22T00:38:26;98760.30;;;10.43;74.69
37904;BME280;23738;50.422;18.758;2024-03-22T00:40:55;98759.29;;;10.40;75.15
37904;BME280;23738;50.422;18.758;2024-03-22T00:43:25;98757.48;;;10.39;74.29
37904;BME280;23738;50.422;18.758;2024-03-22T00:45:54;98754.36;;;10.38;75.28
37904;BME280;23738;50.422;18.758;2024-03-22T00:48:24;98756.04;;;10.38;75.50
37904;BME280;23738;50.422;18.758;2024-03-22T00:50:53;98754.69;;;10.36;76.20
37904;BME280;23738;50.422;18.758;2024-03-22T00:53:22;98751.45;;;10.32;75.76
37904;BME280;23738;50.422;18.758;2024-03-22T00:55:52;98749.32;;;10.28;76.87
37904;BME280;23738;50.422;18.758;2024-03-22T00:58:21;98753.55;;;10.25;76.01
37904;BME280;23738;50.422;18.758;2024-03-22T01:00:50;98753.20;;;10.24;76.02
37904;BME280;23738;50.422;18.758;2024-03-22T01:03:19;98753.80;;;10.22;76.61
37904;BME280;23738;50.422;18.758;2024-03-22T01:05:49;98757.16;;;10.19;77.24
37904;BME280;23738;50.422;18.758;2024-03-22T01:08:18;98755.05;;;10.14;78.28
37904;BME280;23738;50.422;18.758;2024-03-22T01:10:47;98758.17;;;10.09;77.62
37904;BME280;23738;50.422;18.758;2024-03-22T01:13:16;98759.33;;;10.06;78.11
37904;BME280;23738;50.422;18.758;2024-03-22T01:15:45;98757.45;;;10.04;78.54
37904;BME280;23738;50.422;18.758;2024-03-22T01:18:15;98759.23;;;9.99;78.33
37904;BME280;23738;50.422;18.758;2024-03-22T01:20:45;98756.33;;;9.96;78.28
37904;BME280;23738;50.422;18.758;2024-03-22T01:23:14;98761.38;;;9.93;78.14
37904;BME280;23738;50.422;18.758;2024-03-22T01:25:44;98764.98;;;9.92;78.09
37904;BME280;23738;50.422;18.758;2024-03-22T01:28:13;98763.27;;;9.92;78.63
37904;BME280;23738;50.422;18.758;2024-03-22T01:30:43;98761.70;;;9.90;78.05
37904;BME280;23738;50.422;18.758;2024-03-22T01:33:12;98760.65;;;9.89;79.08
37904;BME280;23738;50.422;18.758;2024-03-22T01:35:42;98759.71;;;9.88;78.02
37904;BME280;23738;50.422;18.758;2024-03-22T01:38:11;98761.26;;;9.90;78.33
37904;BME280;23738;50.422;18.758;2024-03-22T01:40:41;98760.63;;;9.92;78.37
37904;BME280;23738;50.422;18.758;2024-03-22T01:43:10;98759.60;;;9.93;78.68
37904;BME280;23738;50.422;18.758;2024-03-22T01:45:39;98759.92;;;9.94;78.65
37904;BME280;23738;50.422;18.758;2024-03-22T01:48:10;98761.41;;;9.93;78.52
37904;BME280;23738;50.422;18.758;2024-03-22T01:50:40;98760.42;;;9.92;78.76
37904;BME280;23738;50.422;18.758;2024-03-22T01:53:11;98759.83;;;9.93;78.81
37904;BME280;23738;50.422;18.758;2024-03-22T01:55:40;98757.48;;;9.93;78.66
37904;BME280;23738;50.422;18.758;2024-03-22T01:58:10;98761.30;;;9.97;78.74
37904;BME280;23738;50.422;18.758;2024-03-22T02:00:40;98751.02;;;9.99;79.00
37904;BME280;23738;50.422;18.758;2024-03-22T02:03:10;98749.30;;;9.97;79.44
37904;BME280;23738;50.422;18.758;2024-03-22T02:05:39;98756.04;;;9.95;79.44
37904;BME280;23738;50.422;18.758;2024-03-22T02:08:09;98761.92;;;9.91;79.42
37904;BME280;23738;50.422;18.758;2024-03-22T02:10:38;98758.86;;;9.89;79.18
37904;BME280;23738;50.422;18.758;2024-03-22T02:13:08;98755.94;;;9.90;79.07
37904;BME280;23738;50.422;18.758;2024-03-22T02:15:37;98750.59;;;9.91;79.29
37904;BME280;23738;50.422;18.758;2024-03-22T02:18:06;98750.86;;;9.90;79.35
37904;BME280;23738;50.422;18.758;2024-03-22T02:20:36;98757.94;;;9.90;79.26
37904;BME280;23738;50.422;18.758;2024-03-22T02:23:05;98761.69;;;9.84;79.45
37904;BME280;23738;50.422;18.758;2024-03-22T02:25:34;98767.84;;;9.80;79.40
37904;BME280;23738;50.422;18.758;2024-03-22T02:28:05;98766.28;;;9.76;79.26
37904;BME280;23738;50.422;18.758;2024-03-22T02:30:34;98761.95;;;9.77;79.60
37904;BME280;23738;50.422;18.758;2024-03-22T02:33:04;98759.60;;;9.78;79.80
37904;BME280;23738;50.422;18.758;2024-03-22T02:35:33;98762.21;;;9.78;80.21
37904;BME280;23738;50.422;18.758;2024-03-22T02:38:03;98756.19;;;9.77;80.21
37904;BME280;23738;50.422;18.758;2024-03-22T02:40:32;98755.46;;;9.74;80.51
37904;BME280;23738;50.422;18.758;2024-03-22T02:43:01;98753.62;;;9.71;80.55
37904;BME280;23738;50.422;18.758;2024-03-22T02:45:31;98759.44;;;9.69;81.01
37904;BME280;23738;50.422;18.758;2024-03-22T02:48:01;98757.77;;;9.69;80.93
37904;BME280;23738;50.422;18.758;2024-03-22T02:50:34;98753.70;;;9.67;81.45
37904;BME280;23738;50.422;18.758;2024-03-22T02:53:04;98753.29;;;9.65;81.36
37904;BME280;23738;50.422;18.758;2024-03-22T02:55:38;98756.57;;;9.64;81.11
37904;BME280;23738;50.422;18.758;2024-03-22T02:58:07;98752.36;;;9.63;81.35
37904;BME280;23738;50.422;18.758;2024-03-22T03:00:38;98753.27;;;9.64;81.17
37904;BME280;23738;50.422;18.758;2024-03-22T03:03:08;98752.70;;;9.64;81.61
37904;BME280;23738;50.422;18.758;2024-03-22T03:05:37;98751.91;;;9.65;81.72
37904;BME280;23738;50.422;18.758;2024-03-22T03:08:09;98749.49;;;9.63;81.79
37904;BME280;23738;50.422;18.758;2024-03-22T03:10:38;98752.73;;;9.62;81.78
37904;BME280;23738;50.422;18.758;2024-03-22T03:13:08;98750.45;;;9.62;81.82
37904;BME280;23738;50.422;18.758;2024-03-22T03:15:37;98747.48;;;9.65;82.00
37904;BME280;23738;50.422;18.758;2024-03-22T03:18:06;98745.81;;;9.66;82.70
37904;BME280;23738;50.422;18.758;2024-03-22T03:20:36;98739.64;;;9.66;82.31
37904;BME280;23738;50.422;18.758;2024-03-22T03:23:06;98733.73;;;9.64;82.32
37904;BME280;23738;50.422;18.758;2024-03-22T03:25:36;98736.94;;;9.59;82.30
37904;BME280;23738;50.422;18.758;2024-03-22T03:28:05;98739.13;;;9.58;82.42
37904;BME280;23738;50.422;18.758;2024-03-22T03:30:35;98739.31;;;9.57;82.40
37904;BME280;23738;50.422;18.758;2024-03-22T03:33:05;98733.15;;;9.58;82.50
37904;BME280;23738;50.422;18.758;2024-03-22T03:35:34;98735.60;;;9.60;82.52
37904;BME280;23738;50.422;18.758;2024-03-22T03:38:04;98736.66;;;9.60;82.55
37904;BME280;23738;50.422;18.758;2024-03-22T03:40:34;98737.90;;;9.58;82.66
37904;BME280;23738;50.422;18.758;2024-03-22T03:43:04;98735.92;;;9.54;83.18
37904;BME280;23738;50.422;18.758;2024-03-22T03:45:35;98737.56;;;9.53;83.23
37904;BME280;23738;50.422;18.758;2024-03-22T03:48:06;98731.41;;;9.50;84.63
37904;BME280;23738;50.422;18.758;2024-03-22T03:50:35;98735.23;;;9.49;84.13
37904;BME280;23738;50.422;18.758;2024-03-22T03:53:05;98730.99;;;9.48;83.77
37904;BME280;23738;50.422;18.758;2024-03-22T03:55:34;98732.01;;;9.45;83.84
37904;BME280;23738;50.422;18.758;2024-03-22T03:58:04;98727.50;;;9.44;83.35
37904;BME280;23738;50.422;18.758;2024-03-22T04:00:35;98721.61;;;9.47;83.52
37904;BME280;23738;50.422;18.758;2024-03-22T04:03:04;98720.65;;;9.47;84.02
37904;BME280;23738;50.422;18.758;2024-03-22T04:05:34;98722.14;;;9.47;83.91
37904;BME280;23738;50.422;18.758;2024-03-22T04:08:04;98721.27;;;9.45;83.99
37904;BME280;23738;50.422;18.758;2024-03-22T04:10:33;98718.06;;;9.43;83.78
37904;BME280;23738;50.422;18.758;2024-03-22T04:13:03;98711.23;;;9.41;84.24
37904;BME280;23738;50.422;18.758;2024-03-22T04:15:36;98704.79;;;9.39;84.19
37904;BME280;23738;50.422;18.758;2024-03-22T04:18:06;98703.48;;;9.35;84.23
37904;BME280;23738;50.422;18.758;2024-03-22T04:20:35;98697.68;;;9.31;83.87
37904;BME280;23738;50.422;18.758;2024-03-22T04:23:05;98702.27;;;9.28;83.74
37904;BME280;23738;50.422;18.758;2024-03-22T04:25:34;98707.02;;;9.25;83.61
37904;BME280;23738;50.422;18.758;2024-03-22T04:28:04;98708.47;;;9.24;83.54
37904;BME280;23738;50.422;18.758;2024-03-22T04:30:34;98704.30;;;9.21;84.11
37904;BME280;23738;50.422;18.758;2024-03-22T04:33:04;98707.98;;;9.17;83.92
37904;BME280;23738;50.422;18.758;2024-03-22T04:35:33;98712.23;;;9.12;83.64
37904;BME280;23738;50.422;18.758;2024-03-22T04:38:02;98718.36;;;9.09;83.58
37904;BME280;23738;50.422;18.758;2024-03-22T04:40:32;98718.24;;;9.04;83.73
37904;BME280;23738;50.422;18.758;2024-03-22T04:43:01;98718.14;;;9.00;83.50
37904;BME280;23738;50.422;18.758;2024-03-22T04:45:30;98718.48;;;8.99;83.36
37904;BME280;23738;50.422;18.758;2024-03-22T04:48:01;98716.36;;;8.98;83.42
37904;BME280;23738;50.422;18.758;2024-03-22T04:50:30;98714.69;;;8.94;83.29
37904;BME280;23738;50.422;18.758;2024-03-22T04:52:59;98720.44;;;8.90;83.25
37904;BME280;23738;50.422;18.758;2024-03-22T04:55:28;98725.62;;;8.87;83.27
37904;BME280;23738;50.422;18.758;2024-03-22T04:57:57;98722.91;;;8.82;83.21
37904;BME280;23738;50.422;18.758;2024-03-22T05:00:27;98726.73;;;8.81;83.30
37904;BME280;23738;50.422;18.758;2024-03-22T05:02:56;98733.81;;;8.78;83.05
37904;BME280;23738;50.422;18.758;2024-03-22T05:05:25;98734.39;;;8.75;83.10
37904;BME280;23738;50.422;18.758;2024-03-22T05:07:54;98738.30;;;8.70;82.89
37904;BME280;23738;50.422;18.758;2024-03-22T05:10:23;98740.41;;;8.67;82.92
37904;BME280;23738;50.422;18.758;2024-03-22T05:12:53;98740.09;;;8.65;82.86
37904;BME280;23738;50.422;18.758;2024-03-22T05:15:23;98742.77;;;8.65;82.78
37904;BME280;23738;50.422;18.758;2024-03-22T05:17:56;98742.55;;;8.64;82.73
37904;BME280;23738;50.422;18.758;2024-03-22T05:20:25;98741.30;;;8.63;82.54
37904;BME280;23738;50.422;18.758;2024-03-22T05:22:55;98743.00;;;8.62;82.57
37904;BME280;23738;50.422;18.758;2024-03-22T05:25:24;98745.47;;;8.60;82.42
37904;BME280;23738;50.422;18.758;2024-03-22T05:27:54;98745.57;;;8.60;82.50
37904;BME280;23738;50.422;18.758;2024-03-22T05:30:23;98740.98;;;8.61;82.36
37904;BME280;23738;50.422;18.758;2024-03-22T05:32:52;98740.66;;;8.62;82.49
37904;BME280;23738;50.422;18.758;2024-03-22T05:35:21;98736.61;;;8.62;82.44
37904;BME280;23738;50.422;18.758;2024-03-22T05:37:51;98737.37;;;8.62;82.54
37904;BME280;23738;50.422;18.758;2024-03-22T05:40:20;98736.00;;;8.59;82.56
37904;BME280;23738;50.422;18.758;2024-03-22T05:42:50;98736.21;;;8.54;82.70
37904;BME280;23738;50.422;18.758;2024-03-22T05:45:19;98735.71;;;8.52;82.53
37904;BME280;23738;50.422;18.758;2024-03-22T05:47:48;98729.98;;;8.53;82.48
37904;BME280;23738;50.422;18.758;2024-03-22T05:50:18;98726.95;;;8.54;82.43
37904;BME280;23738;50.422;18.758;2024-03-22T05:52:48;98724.21;;;8.53;82.62
37904;BME280;23738;50.422;18.758;2024-03-22T05:55:18;98715.61;;;8.52;82.50
37904;BME280;23738;50.422;18.758;2024-03-22T05:57:47;98717.66;;;8.54;82.58
37904;BME280;23738;50.422;18.758;2024-03-22T06:00:17;98723.65;;;8.55;82.77
37904;BME280;23738;50.422;18.758;2024-03-22T06:02:46;98724.20;;;8.56;82.80
37904;BME280;23738;50.422;18.758;2024-03-22T06:05:15;98732.65;;;8.57;82.68
37904;BME280;23738;50.422;18.758;2024-03-22T06:07:45;98735.39;;;8.59;82.95
37904;BME280;23738;50.422;18.758;2024-03-22T06:10:15;98737.80;;;8.60;82.94
37904;BME280;23738;50.422;18.758;2024-03-22T06:12:45;98742.46;;;8.61;82.93
37904;BME280;23738;50.422;18.758;2024-03-22T06:15:15;98745.03;;;8.62;83.20
37904;BME280;23738;50.422;18.758;2024-03-22T06:17:45;98743.45;;;8.65;82.99
37904;BME280;23738;50.422;18.758;2024-03-22T06:20:14;98737.80;;;8.67;83.34
37904;BME280;23738;50.422;18.758;2024-03-22T06:22:43;98741.77;;;8.66;83.29
37904;BME280;23738;50.422;18.758;2024-03-22T06:25:13;98739.96;;;8.65;83.14
37904;BME280;23738;50.422;18.758;2024-03-22T06:27:42;98737.80;;;8.64;83.20
37904;BME280;23738;50.422;18.758;2024-03-22T06:30:13;98742.06;;;8.67;83.44
37904;BME280;23738;50.422;18.758;2024-03-22T06:32:42;98742.48;;;8.67;83.22
37904;BME280;23738;50.422;18.758;2024-03-22T06:35:11;98740.01;;;8.68;83.41
37904;BME280;23738;50.422;18.758;2024-03-22T06:37:41;98740.34;;;8.68;83.35
37904;BME280;23738;50.422;18.758;2024-03-22T06:40:12;98737.73;;;8.68;83.50
37904;BME280;23738;50.422;18.758;2024-03-22T06:42:41;98738.06;;;8.68;83.65
37904;BME280;23738;50.422;18.758;2024-03-22T06:45:11;98738.98;;;8.69;83.60
37904;BME280;23738;50.422;18.758;2024-03-22T06:47:40;98739.80;;;8.69;83.94
37904;BME280;23738;50.422;18.758;2024-03-22T06:50:10;98737.88;;;8.68;83.78
37904;BME280;23738;50.422;18.758;2024-03-22T06:52:40;98738.59;;;8.72;83.79
37904;BME280;23738;50.422;18.758;2024-03-22T06:55:09;98740.12;;;8.75;83.82
37904;BME280;23738;50.422;18.758;2024-03-22T06:57:39;98734.77;;;8.80;83.85
37904;BME280;23738;50.422;18.758;2024-03-22T07:00:11;98736.71;;;8.86;83.84
37904;BME280;23738;50.422;18.758;2024-03-22T07:02:41;98735.40;;;8.90;84.06
37904;BME280;23738;50.422;18.758;2024-03-22T07:05:11;98736.91;;;8.94;84.01
37904;BME280;23738;50.422;18.758;2024-03-22T07:07:40;98736.83;;;8.94;84.50
37904;BME280;23738;50.422;18.758;2024-03-22T07:10:11;98728.16;;;8.90;84.51
37904;BME280;23738;50.422;18.758;2024-03-22T07:12:40;98728.78;;;8.92;84.48
37904;BME280;23738;50.422;18.758;2024-03-22T07:15:10;98731.38;;;8.93;84.34
37904;BME280;23738;50.422;18.758;2024-03-22T07:17:39;98731.91;;;8.93;84.34
37904;BME280;23738;50.422;18.758;2024-03-22T07:20:10;98730.12;;;8.93;84.30
37904;BME280;23738;50.422;18.758;2024-03-22T07:22:40;98731.88;;;8.97;84.25
37904;BME280;23738;50.422;18.758;2024-03-22T07:25:10;98725.45;;;8.99;84.44
37904;BME280;23738;50.422;18.758;2024-03-22T07:27:40;98722.03;;;9.04;84.43
37904;BME280;23738;50.422;18.758;2024-03-22T07:30:10;98727.38;;;9.11;84.52
37904;BME280;23738;50.422;18.758;2024-03-22T07:32:40;98728.67;;;9.16;84.48
37904;BME280;23738;50.422;18.758;2024-03-22T07:35:09;98728.11;;;9.19;84.60
37904;BME280;23738;50.422;18.758;2024-03-22T07:37:38;98719.16;;;9.16;84.62
37904;BME280;23738;50.422;18.758;2024-03-22T07:40:09;98722.23;;;9.18;84.44
37904;BME280;23738;50.422;18.758;2024-03-22T07:42:38;98721.29;;;9.18;84.52
37904;BME280;23738;50.422;18.758;2024-03-22T07:45:09;98721.06;;;9.19;84.55
37904;BME280;23738;50.422;18.758;2024-03-22T07:47:38;98722.68;;;9.22;84.42
37904;BME280;23738;50.422;18.758;2024-03-22T07:50:11;98719.14;;;9.24;84.63
37904;BME280;23738;50.422;18.758;2024-03-22T07:52:40;98716.85;;;9.27;84.78
37904;BME280;23738;50.422;18.758;2024-03-22T07:55:10;98718.19;;;9.30;84.71
37904;BME280;23738;50.422;18.758;2024-03-22T07:57:40;98713.52;;;9.34;84.95
37904;BME280;23738;50.422;18.758;2024-03-22T08:00:11;98722.71;;;9.41;85.02
37904;BME280;23738;50.422;18.758;2024-03-22T08:02:41;98720.54;;;9.43;85.34
37904;BME280;23738;50.422;18.758;2024-03-22T08:05:10;98714.25;;;9.41;85.03
37904;BME280;23738;50.422;18.758;2024-03-22T08:07:39;98711.05;;;9.38;85.18
37904;BME280;23738;50.422;18.758;2024-03-22T08:10:10;98713.16;;;9.38;85.17
37904;BME280;23738;50.422;18.758;2024-03-22T08:12:40;98714.86;;;9.42;85.27
37904;BME280;23738;50.422;18.758;2024-03-22T08:15:10;98713.36;;;9.42;85.67
37904;BME280;23738;50.422;18.758;2024-03-22T08:17:39;98714.56;;;9.41;85.33
37904;BME280;23738;50.422;18.758;2024-03-22T08:20:10;98717.03;;;9.40;85.64
37904;BME280;23738;50.422;18.758;2024-03-22T08:22:40;98714.09;;;9.38;85.45
37904;BME280;23738;50.422;18.758;2024-03-22T08:25:09;98719.30;;;9.40;85.57
37904;BME280;23738;50.422;18.758;2024-03-22T08:27:39;98715.98;;;9.41;85.67
37904;BME280;23738;50.422;18.758;2024-03-22T08:30:11;98715.23;;;9.43;86.01
37904;BME280;23738;50.422;18.758;2024-03-22T08:32:41;98721.23;;;9.44;85.86
37904;BME280;23738;50.422;18.758;2024-03-22T08:35:10;98721.48;;;9.43;85.62
37904;BME280;23738;50.422;18.758;2024-03-22T08:37:39;98718.70;;;9.45;85.68
37904;BME280;23738;50.422;18.758;2024-03-22T08:40:11;98719.59;;;9.47;85.77
37904;BME280;23738;50.422;18.758;2024-03-22T08:42:41;98718.02;;;9.50;85.92
37904;BME280;23738;50.422;18.758;2024-03-22T08:45:11;98719.95;;;9.51;85.97
37904;BME280;23738;50.422;18.758;2024-03-22T08:47:40;98720.05;;;9.53;86.04
37904;BME280;23738;50.422;18.758;2024-03-22T08:50:10;98719.14;;;9.55;85.82
37904;BME280;23738;50.422;18.758;2024-03-22T08:52:40;98724.80;;;9.62;86.11
37904;BME280;23738;50.422;18.758;2024-03-22T08:55:09;98723.14;;;9.66;85.97
37904;BME280;23738;50.422;18.758;2024-03-22T08:57:38;98718.17;;;9.67;86.18
37904;BME280;23738;50.422;18.758;2024-03-22T09:00:10;98715.65;;;9.69;85.90
37904;BME280;23738;50.422;18.758;2024-03-22T09:02:40;98710.87;;;9.74;86.24
37904;BME280;23738;50.422;18.758;2024-03-22T09:05:09;98713.17;;;9.74;86.31
37904;BME280;23738;50.422;18.758;2024-03-22T09:07:39;98716.46;;;9.73;86.23
37904;BME280;23738;50.422;18.758;2024-03-22T09:10:10;98711.56;;;9.74;86.25
37904;BME280;23738;50.422;18.758;2024-03-22T09:12:40;98700.71;;;9.78;86.20
37904;BME280;23738;50.422;18.758;2024-03-22T09:15:10;98700.82;;;9.87;86.17
37904;BME280;23738;50.422;18.758;2024-03-22T09:17:39;98699.80;;;9.94;86.13
37904;BME280;23738;50.422;18.758;2024-03-22T09:20:11;98694.66;;;10.03;86.39
37904;BME280;23738;50.422;18.758;2024-03-22T09:22:40;98691.23;;;10.18;86.74
37904;BME280;23738;50.422;18.758;2024-03-22T09:25:09;98686.28;;;10.37;86.57
37904;BME280;23738;50.422;18.758;2024-03-22T09:27:39;98680.54;;;10.50;85.90
37904;BME280;23738;50.422;18.758;2024-03-22T09:30:10;98678.63;;;10.59;85.88
37904;BME280;23738;50.422;18.758;2024-03-22T09:32:40;98680.63;;;10.68;85.70
37904;BME280;23738;50.422;18.758;2024-03-22T09:35:10;98679.09;;;10.76;85.22
37904;BME280;23738;50.422;18.758;2024-03-22T09:37:42;98675.88;;;10.81;85.28
37904;BME280;23738;50.422;18.758;2024-03-22T09:40:13;98672.83;;;10.86;84.98
37904;BME280;23738;50.422;18.758;2024-03-22T09:42:43;98676.58;;;10.89;85.02
37904;BME280;23738;50.422;18.758;2024-03-22T09:45:13;98676.25;;;10.90;84.66
37904;BME280;23738;50.422;18.758;2024-03-22T09:47:47;98676.15;;;10.96;84.70
37904;BME280;23738;50.422;18.758;2024-03-22T09:50:18;98665.36;;;11.07;85.15
37904;BME280;23738;50.422;18.758;2024-03-22T09:52:47;98666.05;;;11.19;85.01
37904;BME280;23738;50.422;18.758;2024-03-22T09:55:16;98667.87;;;11.29;84.94
37904;BME280;23738;50.422;18.758;2024-03-22T09:57:47;98663.35;;;11.35;84.23
37904;BME280;23738;50.422;18.758;2024-03-22T10:00:19;98660.15;;;11.37;83.94
37904;BME280;23738;50.422;18.758;2024-03-22T10:02:50;98654.22;;;11.39;83.51
37904;BME280;23738;50.422;18.758;2024-03-22T10:05:19;98651.98;;;11.44;83.92
37904;BME280;23738;50.422;18.758;2024-03-22T10:07:49;98648.96;;;11.51;83.69
37904;BME280;23738;50.422;18.758;2024-03-22T10:10:20;98649.88;;;11.55;83.52
37904;BME280;23738;50.422;18.758;2024-03-22T10:12:49;98645.11;;;11.64;83.38
37904;BME280;23738;50.422;18.758;2024-03-22T10:15:19;98642.35;;;11.72;83.44
37904;BME280;23738;50.422;18.758;2024-03-22T10:17:48;98644.83;;;11.82;83.74
37904;BME280;23738;50.422;18.758;2024-03-22T10:20:17;98640.98;;;11.93;83.18
37904;BME280;23738;50.422;18.758;2024-03-22T10:22:56;98632.83;;;12.01;83.46
37904;BME280;23738;50.422;18.758;2024-03-22T10:25:27;98631.84;;;12.05;82.92
37904;BME280;23738;50.422;18.758;2024-03-22T10:27:56;98626.29;;;12.07;82.82
37904;BME280;23738;50.422;18.758;2024-03-22T10:30:27;98622.30;;;12.09;82.48
37904;BME280;23738;50.422;18.758;2024-03-22T10:32:56;98623.23;;;12.07;82.12
37904;BME280;23738;50.422;18.758;2024-03-22T10:35:27;98618.13;;;12.04;81.97
37904;BME280;23738;50.422;18.758;2024-03-22T10:37:57;98619.75;;;12.05;82.18
37904;BME280;23738;50.422;18.758;2024-03-22T10:40:27;98616.39;;;12.11;81.98
37904;BME280;23738;50.422;18.758;2024-03-22T10:42:56;98611.98;;;12.23;82.02
37904;BME280;23738;50.422;18.758;2024-03-22T10:45:26;98609.25;;;12.33;81.50
37904;BME280;23738;50.422;18.758;2024-03-22T10:47:56;98612.25;;;12.38;81.32
37904;BME280;23738;50.422;18.758;2024-03-22T10:50:27;98613.04;;;12.45;81.04
37904;BME280;23738;50.422;18.758;2024-03-22T10:53:01;98607.86;;;12.46;81.00
37904;BME280;23738;50.422;18.758;2024-03-22T10:55:36;98601.09;;;12.51;80.70
37904;BME280;23738;50.422;18.758;2024-03-22T10:58:07;98596.43;;;12.52;80.58
37904;BME280;23738;50.422;18.758;2024-03-22T11:00:36;98596.23;;;12.53;80.06
37904;BME280;23738;50.422;18.758;2024-03-22T11:03:15;98594.95;;;12.45;79.10
37904;BME280;23738;50.422;18.758;2024-03-22T11:05:47;98596.06;;;12.42;79.63
37904;BME280;23738;50.422;18.758;2024-03-22T11:08:25;98596.42;;;12.41;79.50
37904;BME280;23738;50.422;18.758;2024-03-22T11:10:56;98595.50;;;12.38;78.96
37904;BME280;23738;50.422;18.758;2024-03-22T11:13:25;98592.10;;;12.35;79.01
37904;BME280;23738;50.422;18.758;2024-03-22T11:15:55;98590.42;;;12.36;79.16
37904;BME280;23738;50.422;18.758;2024-03-22T11:18:24;98585.85;;;12.37;78.89
37904;BME280;23738;50.422;18.758;2024-03-22T11:20:54;98582.19;;;12.37;78.75
37904;BME280;23738;50.422;18.758;2024-03-22T11:23:23;98578.48;;;12.36;77.93
37904;BME280;23738;50.422;18.758;2024-03-22T11:25:52;98577.55;;;12.36;77.99
37904;BME280;23738;50.422;18.758;2024-03-22T11:28:21;98576.32;;;12.36;77.89
37904;BME280;23738;50.422;18.758;2024-03-22T11:30:50;98570.89;;;12.37;78.00
37904;BME280;23738;50.422;18.758;2024-03-22T11:33:19;98564.27;;;12.41;77.53
37904;BME280;23738;50.422;18.758;2024-03-22T11:35:49;98559.95;;;12.46;77.89
37904;BME280;23738;50.422;18.758;2024-03-22T11:38:18;98556.13;;;12.57;78.28
37904;BME280;23738;50.422;18.758;2024-03-22T11:40:48;98556.77;;;12.69;77.70
37904;BME280;23738;50.422;18.758;2024-03-22T11:43:17;98556.41;;;12.72;77.71
37904;BME280;23738;50.422;18.758;2024-03-22T11:45:47;98555.06;;;12.74;77.14
37904;BME280;23738;50.422;18.758;2024-03-22T11:48:16;98556.22;;;12.71;76.51
37904;BME280;23738;50.422;18.758;2024-03-22T11:50:46;98555.15;;;12.65;76.28
37904;BME280;23738;50.422;18.758;2024-03-22T11:53:16;98554.32;;;12.60;76.76
37904;BME280;23738;50.422;18.758;2024-03-22T11:55:46;98549.70;;;12.64;76.71
37904;BME280;23738;50.422;18.758;2024-03-22T11:58:15;98547.25;;;12.70;76.14
37904;BME280;23738;50.422;18.758;2024-03-22T12:00:47;98550.70;;;12.72;76.46
37904;BME280;23738;50.422;18.758;2024-03-22T12:03:16;98550.46;;;12.73;76.25
37904;BME280;23738;50.422;18.758;2024-03-22T12:05:45;98547.66;;;12.77;76.61
37904;BME280;23738;50.422;18.758;2024-03-22T12:08:17;98544.42;;;12.81;76.33
37904;BME280;23738;50.422;18.758;2024-03-22T12:10:47;98545.03;;;12.83;76.41
37904;BME280;23738;50.422;18.758;2024-03-22T12:13:16;98538.73;;;12.87;76.59
37904;BME280;23738;50.422;18.758;2024-03-22T12:15:45;98536.16;;;12.92;76.41
37904;BME280;23738;50.422;18.758;2024-03-22T12:18:15;98533.38;;;12.96;76.28
37904;BME280;23738;50.422;18.758;2024-03-22T12:20:44;98522.45;;;13.02;76.32
37904;BME280;23738;50.422;18.758;2024-03-22T12:23:13;98516.94;;;13.18;76.10
37904;BME280;23738;50.422;18.758;2024-03-22T12:25:43;98513.66;;;13.36;76.03
37904;BME280;23738;50.422;18.758;2024-03-22T12:28:12;98510.30;;;13.45;75.61
37904;BME280;23738;50.422;18.758;2024-03-22T12:30:42;98499.77;;;13.50;75.72
37904;BME280;23738;50.422;18.758;2024-03-22T12:33:12;98501.94;;;13.62;75.51
37904;BME280;23738;50.422;18.758;2024-03-22T12:35:42;98497.79;;;13.69;75.09
37904;BME280;23738;50.422;18.758;2024-03-22T12:38:11;98493.80;;;13.72;74.03
37904;BME280;23738;50.422;18.758;2024-03-22T12:40:42;98489.19;;;13.67;72.99
37904;BME280;23738;50.422;18.758;2024-03-22T12:43:11;98486.52;;;13.65;73.76
37904;BME280;23738;50.422;18.758;2024-03-22T12:45:40;98483.61;;;13.69;73.40
37904;BME280;23738;50.422;18.758;2024-03-22T12:48:10;98475.52;;;13.70;73.23
37904;BME280;23738;50.422;18.758;2024-03-22T12:50:40;98470.30;;;13.70;73.03
37904;BME280;23738;50.422;18.758;2024-03-22T12:53:09;98460.30;;;13.68;72.12
37904;BME280;23738;50.422;18.758;2024-03-22T12:55:38;98460.72;;;13.67;71.99
37904;BME280;23738;50.422;18.758;2024-03-22T12:58:08;98453.81;;;13.64;72.51
37904;BME280;23738;50.422;18.758;2024-03-22T13:00:37;98455.65;;;13.64;72.04
37904;BME280;23738;50.422;18.758;2024-03-22T13:03:07;98448.51;;;13.60;71.73
37904;BME280;23738;50.422;18.758;2024-03-22T13:05:38;98444.38;;;13.60;72.21
37904;BME280;23738;50.422;18.758;2024-03-22T13:08:08;98445.11;;;13.65;72.42